createdAt,value
2018-11-23T00:02:17.801Z,101679.31
2018-11-23T00:04:46.849Z,101683.30
2018-11-23T00:07:15.914Z,101682.03
2018-11-23T00:09:45.469Z,101681.06
2018-11-23T00:12:14.466Z,101681.00
2018-11-23T00:14:43.458Z,101675.64
2018-11-23T00:17:12.972Z,101680.97
2018-11-23T00:19:42.230Z,101678.23
2018-11-23T00:22:11.782Z,101675.23
2018-11-23T00:24:41.095Z,101681.98
2018-11-23T00:27:10.359Z,101676.71
2018-11-23T00:29:39.918Z,101675.38
2018-11-23T00:32:09.189Z,101682.03
2018-11-23T00:34:38.938Z,101680.23
2018-11-23T00:37:08.494Z,101685.97
2018-11-23T00:39:38.091Z,101686.29
2018-11-23T00:42:07.046Z,101676.91
2018-11-23T00:44:36.330Z,101681.31
2018-11-23T00:47:05.018Z,101677.38
2018-11-23T00:49:34.277Z,101680.97
2018-11-23T00:52:10.360Z,101683.63
2018-11-23T00:54:40.100Z,101678.18
2018-11-23T00:57:09.358Z,101682.02
2018-11-23T00:59:38.926Z,101679.00
2018-11-23T01:02:08.374Z,101684.80
2018-11-23T01:04:37.961Z,101679.83
2018-11-23T01:07:06.885Z,101685.56
2018-11-23T01:09:36.209Z,101679.42
2018-11-23T01:12:05.161Z,101693.08
2018-11-23T01:14:34.191Z,101685.92
2018-11-23T01:17:03.470Z,101689.56
2018-11-23T01:19:33.067Z,101692.64
2018-11-23T01:22:02.921Z,101690.77
2018-11-23T01:24:32.195Z,101693.84
2018-11-23T01:27:01.457Z,101694.73
2018-11-23T01:29:31.038Z,101694.32
2018-11-23T01:32:00.598Z,101684.46
2018-11-23T01:34:30.066Z,101679.13
2018-11-23T01:36:59.141Z,101683.09
2018-11-23T01:39:28.239Z,101680.47
2018-11-23T01:41:57.549Z,101683.70
2018-11-23T01:44:27.074Z,101679.67
2018-11-23T01:46:56.510Z,101675.68
2018-11-23T01:49:26.064Z,101676.12
2018-11-23T01:51:55.519Z,101681.45
2018-11-23T01:54:24.777Z,101684.52
2018-11-23T01:56:54.661Z,101688.02
2018-11-23T01:59:24.135Z,101691.18
2018-11-23T02:01:53.417Z,101678.34
2018-11-23T02:04:22.691Z,101682.34
2018-11-23T02:06:52.496Z,101681.86
2018-11-23T02:09:21.768Z,101678.38
2018-11-23T02:11:51.321Z,101681.98
2018-11-23T02:14:20.538Z,101685.09
2018-11-23T02:16:49.806Z,101685.09
2018-11-23T02:19:19.013Z,101677.17
2018-11-23T02:21:49.306Z,101671.36
2018-11-23T02:24:18.561Z,101669.53
2018-11-23T02:26:49.278Z,101674.34
2018-11-23T02:29:18.536Z,101675.27
2018-11-23T02:31:47.811Z,101671.78
2018-11-23T02:34:24.050Z,101672.34
2018-11-23T02:36:53.588Z,101670.60
2018-11-23T02:39:23.117Z,101670.66
2018-11-23T02:41:52.815Z,101672.44
2018-11-23T02:44:22.297Z,101668.16
2018-11-23T02:46:51.606Z,101667.81
2018-11-23T02:49:21.149Z,101662.52
2018-11-23T02:51:50.699Z,101661.18
2018-11-23T02:54:20.264Z,101659.44
2018-11-23T02:56:49.862Z,101658.58
2018-11-23T02:59:23.787Z,101662.22
2018-11-23T03:01:49.658Z,101650.75
2018-11-23T03:04:19.335Z,101656.58
2018-11-23T03:06:49.533Z,101655.72
2018-11-23T03:09:19.781Z,101651.73
2018-11-23T03:11:49.392Z,101649.13
2018-11-23T03:14:18.651Z,101653.22
2018-11-23T03:16:47.926Z,101644.41
2018-11-23T03:19:17.403Z,101641.74
2018-11-23T03:21:46.663Z,101645.70
2018-11-23T03:24:16.190Z,101647.54
2018-11-23T03:26:45.362Z,101647.56
2018-11-23T03:29:14.622Z,101643.23
2018-11-23T03:31:43.639Z,101644.20
2018-11-23T03:34:14.225Z,101639.80
2018-11-23T03:36:43.581Z,101634.48
2018-11-23T03:39:12.516Z,101635.87
2018-11-23T03:41:41.768Z,101637.20
2018-11-23T03:44:11.046Z,101639.86
2018-11-23T03:46:40.155Z,101638.95
2018-11-23T03:49:09.559Z,101639.70
2018-11-23T03:51:38.810Z,101643.58
2018-11-23T03:54:08.380Z,101642.16
2018-11-23T03:56:37.650Z,101639.05
2018-11-23T03:59:06.590Z,101639.84
2018-11-23T04:01:35.841Z,101641.52
2018-11-23T04:04:05.817Z,101641.02
2018-11-23T04:06:34.742Z,101642.35
2018-11-23T04:09:03.214Z,101643.66
2018-11-23T04:11:32.463Z,101635.12
2018-11-23T04:14:01.742Z,101639.95
2018-11-23T04:16:31.294Z,101639.38
2018-11-23T04:19:00.859Z,101635.29
2018-11-23T04:21:30.357Z,101633.89
2018-11-23T04:23:59.673Z,101636.55
2018-11-23T04:26:28.714Z,101638.77
2018-11-23T04:28:58.460Z,101636.91
2018-11-23T04:31:27.737Z,101630.66
2018-11-23T04:33:57.299Z,101628.00
2018-11-23T04:36:26.748Z,101635.06
2018-11-23T04:38:56.483Z,101635.06
2018-11-23T04:41:25.750Z,101631.98
2018-11-23T04:43:55.005Z,101628.00
2018-11-23T04:46:27.881Z,101627.08
2018-11-23T04:49:09.639Z,101630.72
2018-11-23T04:51:51.493Z,101630.79
2018-11-23T04:54:27.956Z,101625.84
2018-11-23T04:56:57.830Z,101621.50
2018-11-23T04:59:32.696Z,101621.62
2018-11-23T05:02:01.946Z,101629.70
2018-11-23T05:04:31.679Z,101620.83
2018-11-23T05:07:01.235Z,101621.78
2018-11-23T05:09:30.841Z,101622.64
2018-11-23T05:12:00.105Z,101615.12
2018-11-23T05:14:29.689Z,101619.98
2018-11-23T05:16:59.124Z,101623.87
2018-11-23T05:19:28.679Z,101620.73
2018-11-23T05:21:57.971Z,101623.87
2018-11-23T05:24:27.513Z,101619.06
2018-11-23T05:26:56.958Z,101616.05
2018-11-23T05:29:26.506Z,101613.06
2018-11-23T05:31:55.966Z,101607.45
2018-11-23T05:34:25.696Z,101612.46
2018-11-23T05:36:55.431Z,101614.36
2018-11-23T05:39:25.166Z,101614.01
2018-11-23T05:41:54.714Z,101616.73
2018-11-23T05:44:23.974Z,101614.67
2018-11-23T05:46:53.247Z,101617.89
2018-11-23T05:49:22.730Z,101608.32
2018-11-23T05:51:52.190Z,101607.55
2018-11-23T05:54:21.209Z,101599.87
2018-11-23T05:56:50.758Z,101611.34
2018-11-23T05:59:20.110Z,101603.93
2018-11-23T06:02:02.158Z,101612.06
2018-11-23T06:04:31.397Z,101616.67
2018-11-23T06:07:01.035Z,101613.27
2018-11-23T06:09:30.290Z,101617.38
2018-11-23T06:12:00.122Z,101617.05
2018-11-23T06:14:29.623Z,101622.42
2018-11-23T06:16:59.198Z,101623.41
2018-11-23T06:19:29.693Z,101617.34
2018-11-23T06:21:59.234Z,101622.36
2018-11-23T06:24:32.100Z,101626.48
2018-11-23T06:26:58.097Z,101627.95
2018-11-23T06:29:27.361Z,101635.98
2018-11-23T06:31:57.112Z,101632.56
2018-11-23T06:34:27.225Z,101633.05
2018-11-23T06:36:56.519Z,101627.82
2018-11-23T06:39:25.997Z,101626.19
2018-11-23T06:41:55.381Z,101627.13
2018-11-23T06:44:24.302Z,101630.75
2018-11-23T06:46:53.842Z,101629.14
2018-11-23T06:49:23.431Z,101629.70
2018-11-23T06:51:52.419Z,101629.81
2018-11-23T06:54:22.407Z,101634.76
2018-11-23T06:56:51.970Z,101639.27
2018-11-23T06:59:21.235Z,101640.64
2018-11-23T07:01:50.789Z,101637.63
2018-11-23T07:04:20.170Z,101635.02
2018-11-23T07:06:50.276Z,101642.11
2018-11-23T07:09:19.530Z,101638.67
2018-11-23T07:11:49.996Z,101643.14
2018-11-23T07:14:19.472Z,101633.96
2018-11-23T07:16:49.994Z,101630.41
2018-11-23T07:19:19.265Z,101633.98
2018-11-23T07:21:48.014Z,101635.36
2018-11-23T07:24:17.459Z,101632.70
2018-11-23T07:26:47.064Z,101636.27
2018-11-23T07:29:17.038Z,101638.49
2018-11-23T07:31:46.322Z,101635.47
2018-11-23T07:34:15.898Z,101639.45
2018-11-23T07:36:45.188Z,101640.78
2018-11-23T07:39:13.874Z,101635.49
2018-11-23T07:41:54.390Z,101641.27
2018-11-23T07:44:23.941Z,101635.08
2018-11-23T07:46:53.163Z,101639.95
2018-11-23T07:49:22.894Z,101639.45
2018-11-23T07:51:52.279Z,101629.22
2018-11-23T07:54:21.546Z,101625.11
2018-11-23T07:56:51.126Z,101628.05
2018-11-23T07:59:20.378Z,101623.48
2018-11-23T08:01:50.367Z,101619.89
2018-11-23T08:04:25.926Z,101628.20
2018-11-23T08:06:55.199Z,101628.72
2018-11-23T08:09:24.131Z,101622.30
2018-11-23T08:11:52.865Z,101623.59
2018-11-23T08:14:21.816Z,101625.02
2018-11-23T08:16:51.380Z,101623.63
2018-11-23T08:19:20.597Z,101620.01
2018-11-23T08:21:50.501Z,101619.25
2018-11-23T08:24:20.063Z,101616.09
2018-11-23T08:26:50.458Z,101619.75
2018-11-23T08:29:20.211Z,101615.77
2018-11-23T08:31:50.382Z,101615.39
2018-11-23T08:34:20.451Z,101622.88
2018-11-23T08:36:50.107Z,101633.16
2018-11-23T08:39:19.366Z,101630.75
2018-11-23T08:41:49.248Z,101630.27
2018-11-23T08:44:18.511Z,101624.20
2018-11-23T08:46:48.058Z,101622.88
2018-11-23T08:49:17.347Z,101622.40
2018-11-23T08:51:46.609Z,101618.09
2018-11-23T08:54:15.817Z,101621.16
2018-11-23T08:56:45.692Z,101618.95
2018-11-23T08:59:15.144Z,101617.48
2018-11-23T09:01:44.591Z,101611.80
2018-11-23T09:04:14.116Z,101611.71
2018-11-23T09:06:43.563Z,101613.41
2018-11-23T09:09:12.831Z,101619.97
2018-11-23T09:11:42.201Z,101608.73
2018-11-23T09:14:11.222Z,101609.67
2018-11-23T09:16:40.473Z,101599.95
2018-11-23T09:19:09.750Z,101607.30
2018-11-23T09:21:39.002Z,101609.77
2018-11-23T09:24:08.237Z,101615.53
2018-11-23T09:26:37.512Z,101610.50
2018-11-23T09:29:07.262Z,101614.18
2018-11-23T09:31:36.531Z,101607.63
2018-11-23T09:34:06.872Z,101607.33
2018-11-23T09:36:36.124Z,101620.92
2018-11-23T09:39:05.059Z,101614.50
2018-11-23T09:41:34.407Z,101616.63
2018-11-23T09:44:03.665Z,101619.45
2018-11-23T09:46:33.231Z,101616.65
2018-11-23T09:49:02.793Z,101616.78
2018-11-23T09:51:32.368Z,101615.12
2018-11-23T09:54:01.963Z,101605.34
2018-11-23T09:56:31.434Z,101609.05
2018-11-23T09:59:01.009Z,101605.91
2018-11-23T10:01:30.455Z,101604.23
2018-11-23T10:04:00.040Z,101602.66
2018-11-23T10:06:29.486Z,101609.91
2018-11-23T10:08:58.754Z,101615.16
2018-11-23T10:11:28.308Z,101610.38
2018-11-23T10:13:58.207Z,101593.60
2018-11-23T10:16:27.461Z,101587.59
2018-11-23T10:18:56.725Z,101585.14
2018-11-23T10:21:26.007Z,101588.02
2018-11-23T10:23:55.561Z,101581.31
2018-11-23T10:26:24.825Z,101587.92
2018-11-23T10:28:54.717Z,101576.44
2018-11-23T10:31:24.333Z,101574.31
2018-11-23T10:33:53.895Z,101566.45
2018-11-23T10:36:23.509Z,101563.06
2018-11-23T10:38:53.041Z,101562.10
2018-11-23T10:41:22.064Z,101557.64
2018-11-23T10:43:51.613Z,101562.66
2018-11-23T10:46:22.643Z,101556.72
2018-11-23T10:48:52.446Z,101554.02
2018-11-23T10:51:21.603Z,101551.67
2018-11-23T10:53:50.974Z,101541.73
2018-11-23T10:56:20.843Z,101540.27
2018-11-23T10:58:50.579Z,101537.11
2018-11-23T11:01:20.098Z,101529.69
2018-11-23T11:03:50.519Z,101529.43
2018-11-23T11:06:19.396Z,101524.27
2018-11-23T11:08:48.643Z,101524.16
2018-11-23T11:11:17.927Z,101513.05
2018-11-23T11:13:47.195Z,101503.40
2018-11-23T11:16:16.683Z,101493.57
2018-11-23T11:18:45.684Z,101498.84
2018-11-23T11:21:14.950Z,101503.56
2018-11-23T11:23:44.171Z,101504.39
2018-11-23T11:26:13.142Z,101501.39
2018-11-23T11:28:42.658Z,101498.77
2018-11-23T11:31:12.880Z,101495.45
2018-11-23T11:33:42.646Z,101501.30
2018-11-23T11:36:11.299Z,101488.72
2018-11-23T11:38:40.582Z,101493.72
2018-11-23T11:41:09.514Z,101496.25
2018-11-23T11:43:38.802Z,101491.02
2018-11-23T11:46:08.314Z,101493.11
2018-11-23T11:48:37.419Z,101496.61
2018-11-23T11:51:06.266Z,101496.19
2018-11-23T11:53:35.565Z,101486.56
2018-11-23T11:56:04.559Z,101487.30
2018-11-23T11:58:34.073Z,101491.18
2018-11-23T12:01:03.514Z,101493.65
2018-11-23T12:03:32.958Z,101488.14
2018-11-23T12:06:02.620Z,101484.30
2018-11-23T12:08:31.866Z,101476.70
2018-11-23T12:11:01.136Z,101471.00
2018-11-23T12:13:30.806Z,101465.49
2018-11-23T12:16:00.099Z,101466.55
2018-11-23T12:18:29.641Z,101461.06
2018-11-23T12:20:59.019Z,101467.93
2018-11-23T12:23:28.583Z,101460.16
2018-11-23T12:25:57.982Z,101450.92
2018-11-23T12:28:26.940Z,101448.02
2018-11-23T12:30:56.222Z,101449.56
2018-11-23T12:33:25.666Z,101452.51
2018-11-23T12:35:55.117Z,101447.84
2018-11-23T12:38:24.727Z,101446.11
2018-11-23T12:40:54.322Z,101443.76
2018-11-23T12:43:23.389Z,101438.23
2018-11-23T12:45:53.090Z,101431.88
2018-11-23T12:48:34.885Z,101426.37
2018-11-23T12:51:04.162Z,101423.86
2018-11-23T12:53:33.435Z,101425.63
2018-11-23T12:56:02.994Z,101427.91
2018-11-23T12:58:32.272Z,101427.97
2018-11-23T13:01:01.830Z,101422.92
2018-11-23T13:03:31.121Z,101427.39
2018-11-23T13:06:00.706Z,101433.19
2018-11-23T13:08:30.402Z,101432.80
2018-11-23T13:11:00.092Z,101434.67
2018-11-23T13:13:29.354Z,101426.95
2018-11-23T13:15:58.575Z,101420.48
2018-11-23T13:18:28.116Z,101423.17
2018-11-23T13:20:57.378Z,101425.88
2018-11-23T13:23:27.393Z,101422.02
2018-11-23T13:25:57.283Z,101414.06
2018-11-23T13:28:26.608Z,101421.06
2018-11-23T13:30:56.057Z,101413.28
2018-11-23T13:33:25.738Z,101411.91
2018-11-23T13:35:55.029Z,101411.69
2018-11-23T13:38:24.759Z,101412.75
2018-11-23T13:40:54.310Z,101413.84
2018-11-23T13:43:23.859Z,101409.25
2018-11-23T13:45:53.190Z,101415.66
2018-11-23T13:48:22.907Z,101415.48
2018-11-23T13:50:52.180Z,101415.61
2018-11-23T13:53:21.742Z,101415.16
2018-11-23T13:55:51.530Z,101418.91
2018-11-23T13:58:20.805Z,101422.19
2018-11-23T14:00:51.581Z,101414.97
2018-11-23T14:03:21.139Z,101406.55
2018-11-23T14:05:51.541Z,101409.08
2018-11-23T14:08:21.207Z,101412.53
2018-11-23T14:10:51.562Z,101410.01
2018-11-23T14:13:20.849Z,101413.73
2018-11-23T14:15:51.622Z,101413.02
2018-11-23T14:18:21.358Z,101412.87
2018-11-23T14:20:51.623Z,101418.28
2018-11-23T14:23:21.235Z,101415.11
2018-11-23T14:25:51.527Z,101413.25
2018-11-23T14:28:20.792Z,101409.75
2018-11-23T14:30:51.386Z,101409.39
2018-11-23T14:33:20.593Z,101403.50
2018-11-23T14:35:51.632Z,101407.68
2018-11-23T14:38:21.691Z,101415.30
2018-11-23T14:40:51.690Z,101410.97
2018-11-23T14:43:21.974Z,101409.45
2018-11-23T14:45:51.741Z,101408.41
2018-11-23T14:48:21.238Z,101403.16
2018-11-23T14:50:51.392Z,101406.78
2018-11-23T14:53:20.663Z,101409.28
2018-11-23T14:55:50.012Z,101407.98
2018-11-23T14:58:19.469Z,101419.98
2018-11-23T15:00:48.917Z,101420.47
2018-11-23T15:03:19.396Z,101418.91
2018-11-23T15:05:47.614Z,101413.79
2018-11-23T15:08:17.213Z,101412.78
2018-11-23T15:10:46.820Z,101411.03
2018-11-23T15:13:16.040Z,101405.77
2018-11-23T15:15:45.369Z,101409.63
2018-11-23T15:18:14.538Z,101409.47
2018-11-23T15:20:43.819Z,101403.15
2018-11-23T15:23:13.296Z,101405.52
2018-11-23T15:25:43.362Z,101398.91
2018-11-23T15:28:12.629Z,101399.31
2018-11-23T15:30:41.706Z,101400.65
2018-11-23T15:33:10.606Z,101400.16
2018-11-23T15:35:39.879Z,101399.14
2018-11-23T15:38:10.318Z,101390.72
2018-11-23T15:40:38.676Z,101395.81
2018-11-23T15:43:07.966Z,101392.52
2018-11-23T15:45:37.067Z,101392.87
2018-11-23T15:48:06.094Z,101390.95
2018-11-23T15:50:35.086Z,101384.13
2018-11-23T15:53:03.910Z,101385.29
2018-11-23T15:55:33.149Z,101380.88
2018-11-23T15:58:02.961Z,101384.89
2018-11-23T16:00:32.181Z,101386.18
2018-11-23T16:03:01.619Z,101379.89
2018-11-23T16:05:30.588Z,101388.79
2018-11-23T16:07:59.837Z,101394.97
2018-11-23T16:10:29.942Z,101393.92
2018-11-23T16:12:59.682Z,101394.22
2018-11-23T16:15:28.969Z,101393.90
2018-11-23T16:17:58.705Z,101390.42
2018-11-23T16:20:27.966Z,101381.20
2018-11-23T16:22:57.403Z,101379.15
2018-11-23T16:25:26.855Z,101374.91
2018-11-23T16:27:55.849Z,101380.53
2018-11-23T16:30:25.215Z,101382.81
2018-11-23T16:32:54.762Z,101380.32
2018-11-23T16:35:24.510Z,101377.98
2018-11-23T16:37:53.467Z,101383.41
2018-11-23T16:40:22.730Z,101380.56
2018-11-23T16:42:52.021Z,101391.55
2018-11-23T16:45:21.010Z,101393.67
2018-11-23T16:47:51.927Z,101394.16
2018-11-23T16:50:21.609Z,101389.22
2018-11-23T16:52:51.915Z,101384.74
2018-11-23T16:55:20.904Z,101381.67
2018-11-23T16:57:51.175Z,101387.81
2018-11-23T17:00:19.359Z,101389.55
2018-11-23T17:02:48.697Z,101386.48
2018-11-23T17:05:17.391Z,101389.02
2018-11-23T17:07:46.137Z,101387.99
2018-11-23T17:10:15.392Z,101381.40
2018-11-23T17:12:44.706Z,101378.62
2018-11-23T17:15:14.143Z,101381.73
2018-11-23T17:17:43.602Z,101381.28
2018-11-23T17:20:12.627Z,101377.28
2018-11-23T17:22:42.029Z,101373.28
2018-11-23T17:25:11.570Z,101374.21
2018-11-23T17:27:40.594Z,101368.92
2018-11-23T17:30:09.505Z,101368.14
2018-11-23T17:32:39.283Z,101370.52
2018-11-23T17:35:08.691Z,101374.71
2018-11-23T17:37:37.816Z,101375.31
2018-11-23T17:40:06.553Z,101369.72
2018-11-23T17:42:36.525Z,101368.17
2018-11-23T17:45:05.494Z,101360.96
2018-11-23T17:47:34.763Z,101361.27
2018-11-23T17:50:03.692Z,101357.45
2018-11-23T17:52:33.097Z,101354.86
2018-11-23T17:55:02.641Z,101358.59
2018-11-23T17:57:32.158Z,101350.31
2018-11-23T18:00:01.547Z,101346.39
2018-11-23T18:02:30.594Z,101338.63
2018-11-23T18:05:03.589Z,101340.14
2018-11-23T18:07:29.459Z,101349.53
2018-11-23T18:09:59.071Z,101352.86
2018-11-23T18:12:28.629Z,101353.45
2018-11-23T18:14:58.030Z,101345.13
2018-11-23T18:17:27.061Z,101346.49
2018-11-23T18:19:56.343Z,101341.64
2018-11-23T18:22:25.894Z,101342.16
2018-11-23T18:24:55.223Z,101344.59
2018-11-23T18:27:25.178Z,101341.84
2018-11-23T18:29:54.723Z,101353.59
2018-11-23T18:32:23.995Z,101347.36
2018-11-23T18:34:53.890Z,101354.88
2018-11-23T18:37:23.151Z,101347.95
2018-11-23T18:39:52.711Z,101353.61
2018-11-23T18:42:22.119Z,101344.23
2018-11-23T18:44:52.271Z,101343.82
2018-11-23T18:47:21.538Z,101335.67
2018-11-23T18:49:52.494Z,101331.41
2018-11-23T18:52:22.214Z,101331.95
2018-11-23T18:54:52.383Z,101327.11
2018-11-23T18:57:21.855Z,101318.72
2018-11-23T18:59:52.290Z,101320.30
2018-11-23T19:02:21.841Z,101310.30
2018-11-23T19:04:52.286Z,101297.27
2018-11-23T19:07:22.359Z,101305.49
2018-11-23T19:09:52.393Z,101306.31
2018-11-23T19:12:22.342Z,101304.50
2018-11-23T19:14:51.940Z,101305.49
2018-11-23T19:17:21.198Z,101298.20
2018-11-23T19:19:50.257Z,101298.30
2018-11-23T19:22:19.997Z,101296.69
2018-11-23T19:24:49.311Z,101292.20
2018-11-23T19:27:18.866Z,101288.65
2018-11-23T19:29:48.126Z,101287.08
2018-11-23T19:32:17.506Z,101282.00
2018-11-23T19:34:47.070Z,101274.33
2018-11-23T19:37:16.329Z,101276.67
2018-11-23T19:39:58.031Z,101277.66
2018-11-23T19:42:35.568Z,101267.13
2018-11-23T19:45:04.486Z,101269.03
2018-11-23T19:47:34.066Z,101265.05
2018-11-23T19:50:03.010Z,101266.88
2018-11-23T19:52:32.278Z,101254.06
2018-11-23T19:55:01.703Z,101266.88
2018-11-23T19:57:31.155Z,101262.55
2018-11-23T20:00:00.410Z,101256.04
2018-11-23T20:02:30.066Z,101255.66
2018-11-23T20:04:59.578Z,101253.00
2018-11-23T20:07:29.197Z,101244.69
2018-11-23T20:09:59.135Z,101248.74
2018-11-23T20:12:28.410Z,101243.49
2018-11-23T20:14:57.977Z,101237.47
2018-11-23T20:17:26.950Z,101233.66
2018-11-23T20:19:56.251Z,101227.77
2018-11-23T20:22:25.508Z,101220.11
2018-11-23T20:24:55.371Z,101223.23
2018-11-23T20:27:24.657Z,101218.36
2018-11-23T20:29:54.343Z,101213.05
2018-11-23T20:32:23.720Z,101200.58
2018-11-23T20:34:53.274Z,101194.86
2018-11-23T20:37:22.557Z,101201.09
2018-11-23T20:39:52.168Z,101194.95
2018-11-23T20:42:21.439Z,101188.86
2018-11-23T20:44:52.068Z,101191.04
2018-11-23T20:47:21.447Z,101189.30
2018-11-23T20:49:50.822Z,101189.37
2018-11-23T20:52:19.965Z,101191.69
2018-11-23T20:54:49.370Z,101195.12
2018-11-23T20:57:18.671Z,101190.29
2018-11-23T20:59:49.100Z,101189.37
2018-11-23T21:02:18.373Z,101182.80
2018-11-23T21:04:59.651Z,101189.88
2018-11-23T21:07:35.542Z,101188.63
2018-11-23T21:10:04.316Z,101188.96
2018-11-23T21:12:33.796Z,101193.59
2018-11-23T21:15:03.350Z,101192.12
2018-11-23T21:17:32.791Z,101194.27
2018-11-23T21:20:02.470Z,101196.95
2018-11-23T21:22:31.495Z,101193.86
2018-11-23T21:25:00.764Z,101196.52
2018-11-23T21:27:30.341Z,101196.86
2018-11-23T21:29:59.606Z,101198.59
2018-11-23T21:32:29.187Z,101191.55
2018-11-23T21:34:58.514Z,101194.13
2018-11-23T21:37:28.613Z,101191.95
2018-11-23T21:39:58.450Z,101181.73
2018-11-23T21:42:27.705Z,101183.50
2018-11-23T21:44:57.284Z,101180.81
2018-11-23T21:47:26.542Z,101173.42
2018-11-23T21:49:56.127Z,101174.69
2018-11-23T21:52:25.069Z,101166.38
2018-11-23T21:54:54.330Z,101176.52
2018-11-23T21:57:23.601Z,101172.13
2018-11-23T21:59:53.738Z,101167.45
2018-11-23T22:02:23.312Z,101170.76
2018-11-23T22:04:52.905Z,101154.07
2018-11-23T22:07:22.298Z,101158.56
2018-11-23T22:09:52.623Z,101151.01
2018-11-23T22:12:22.362Z,101158.56
2018-11-23T22:14:52.615Z,101154.61
2018-11-23T22:17:22.342Z,101161.22
2018-11-23T22:19:52.706Z,101158.25
2018-11-23T22:22:22.181Z,101162.78
2018-11-23T22:24:52.874Z,101163.56
2018-11-23T22:27:22.468Z,101162.23
2018-11-23T22:29:51.750Z,101167.52
2018-11-23T22:32:21.363Z,101164.86
2018-11-23T22:34:51.110Z,101170.55
2018-11-23T22:37:20.474Z,101168.30
2018-11-23T22:39:49.762Z,101176.27
2018-11-23T22:42:19.025Z,101172.53
2018-11-23T22:44:48.440Z,101177.27
2018-11-23T22:47:17.721Z,101169.47
2018-11-23T22:49:47.281Z,101160.83
2018-11-23T22:52:16.682Z,101158.68
2018-11-23T22:54:45.971Z,101164.12
2018-11-23T22:57:15.527Z,101160.17
2018-11-23T22:59:44.989Z,101154.93
2018-11-23T23:02:21.863Z,101155.92
2018-11-23T23:04:52.497Z,101152.69
2018-11-23T23:07:21.850Z,101150.44
2018-11-23T23:09:51.463Z,101158.34
2018-11-23T23:12:20.744Z,101159.22
2018-11-23T23:14:50.017Z,101159.16
2018-11-23T23:17:19.634Z,101151.42
2018-11-23T23:19:48.910Z,101143.69
2018-11-23T23:22:18.507Z,101137.48
2018-11-23T23:24:47.797Z,101130.44
2018-11-23T23:27:17.227Z,101130.84
2018-11-23T23:29:46.693Z,101127.78
2018-11-23T23:32:16.439Z,101124.52
2018-11-23T23:34:45.727Z,101125.84
2018-11-23T23:37:15.000Z,101119.13
2018-11-23T23:39:44.742Z,101118.73
2018-11-23T23:42:14.481Z,101121.31
2018-11-23T23:44:43.785Z,101121.72
2018-11-23T23:47:13.528Z,101107.92
2018-11-23T23:49:42.803Z,101109.08
2018-11-23T23:52:12.303Z,101108.73
2018-11-23T23:54:41.754Z,101105.16
2018-11-23T23:57:10.973Z,101108.33
2018-11-23T23:59:40.947Z,101110.28
